createdAt,value
2023-03-08T00:01:30.909Z,98970.19
2023-03-08T00:03:58.635Z,98970.81
2023-03-08T00:06:26.300Z,98969.00
2023-03-08T00:09:02.535Z,98963.25
2023-03-08T00:11:30.192Z,98958.31
2023-03-08T00:13:57.456Z,98960.69
2023-03-08T00:16:24.146Z,98967.00
2023-03-08T00:18:50.691Z,98973.72
2023-03-08T00:21:18.755Z,98978.25
2023-03-08T00:23:45.899Z,98985.38
2023-03-08T00:26:13.061Z,98979.25
2023-03-08T00:28:40.268Z,98980.81
2023-03-08T00:31:10.461Z,98980.81
2023-03-08T00:33:37.790Z,98982.41
2023-03-08T00:36:11.785Z,98984.38
2023-03-08T00:38:38.586Z,98987.13
2023-03-08T00:41:05.293Z,98987.53
2023-03-08T00:43:31.974Z,98979.00
2023-03-08T00:45:58.550Z,98981.56
2023-03-08T00:48:25.345Z,98985.13
2023-03-08T00:50:52.487Z,98991.44
2023-03-08T00:53:19.517Z,98998.13
2023-03-08T00:55:50.563Z,99009.41
2023-03-08T00:58:17.482Z,99002.69
2023-03-08T01:00:44.632Z,99013.94
2023-03-08T01:03:11.269Z,99011.16
2023-03-08T01:05:46.049Z,99017.53
2023-03-08T01:08:13.567Z,99013.81
2023-03-08T01:10:40.642Z,99017.16
2023-03-08T01:13:08.287Z,99014.41
2023-03-08T01:15:38.821Z,99014.41
2023-03-08T01:18:06.348Z,98999.00
2023-03-08T01:20:33.659Z,99012.22
2023-03-08T01:23:00.602Z,99017.13
2023-03-08T01:25:27.316Z,99014.31
2023-03-08T01:27:53.881Z,99013.69
2023-03-08T01:30:20.609Z,99003.56
2023-03-08T01:32:47.522Z,99013.03
2023-03-08T01:35:14.192Z,99020.53
2023-03-08T01:37:40.843Z,99019.59
2023-03-08T01:40:08.425Z,99026.34
2023-03-08T01:42:37.938Z,99029.34
2023-03-08T01:45:27.024Z,99024.19
2023-03-08T01:47:53.516Z,99022.25
2023-03-08T01:50:20.829Z,99024.63
2023-03-08T01:52:52.389Z,99027.81
2023-03-08T01:55:19.538Z,99031.78
2023-03-08T01:57:55.262Z,99033.38
2023-03-08T02:00:26.903Z,99034.19
2023-03-08T02:03:11.457Z,99041.28
2023-03-08T02:05:41.936Z,99036.13
2023-03-08T02:08:08.679Z,99035.31
2023-03-08T02:10:37.122Z,99038.47
2023-03-08T02:13:09.208Z,99038.03
2023-03-08T02:15:36.152Z,99037.00
2023-03-08T02:18:02.753Z,99041.50
2023-03-08T02:20:32.840Z,99041.69
2023-03-08T02:23:11.723Z,99056.31
2023-03-08T02:25:38.714Z,99054.50
2023-03-08T02:28:06.107Z,99053.44
2023-03-08T02:30:35.786Z,99046.28
2023-03-08T02:33:03.059Z,99044.44
2023-03-08T02:35:30.169Z,99040.25
2023-03-08T02:37:56.774Z,99052.38
2023-03-08T02:40:23.368Z,99053.72
2023-03-08T02:42:51.672Z,99059.03
2023-03-08T02:45:19.794Z,99056.47
2023-03-08T02:47:46.312Z,99060.19
2023-03-08T02:50:12.821Z,99066.47
2023-03-08T02:52:39.376Z,99065.88
2023-03-08T02:55:06.782Z,99074.97
2023-03-08T02:57:33.277Z,99070.88
2023-03-08T02:59:59.901Z,99083.00
2023-03-08T03:02:26.603Z,99083.88
2023-03-08T03:04:53.163Z,99092.78
2023-03-08T03:07:19.656Z,99088.03
2023-03-08T03:09:46.158Z,99090.88
2023-03-08T03:12:12.685Z,99090.97
2023-03-08T03:14:39.214Z,99099.22
2023-03-08T03:17:05.769Z,99100.09
2023-03-08T03:19:32.397Z,99098.44
2023-03-08T03:21:58.989Z,99101.72
2023-03-08T03:24:25.564Z,99109.31
2023-03-08T03:26:52.301Z,99109.88
2023-03-08T03:29:18.926Z,99105.06
2023-03-08T03:31:45.555Z,99109.16
2023-03-08T03:34:12.183Z,99117.38
2023-03-08T03:36:38.773Z,99116.91
2023-03-08T03:39:05.371Z,99118.72
2023-03-08T03:41:32.088Z,99121.00
2023-03-08T03:43:59.111Z,99120.88
2023-03-08T03:46:25.761Z,99132.47
2023-03-08T03:48:52.399Z,99137.78
2023-03-08T03:51:21.201Z,99133.97
2023-03-08T03:53:48.235Z,99143.41
2023-03-08T03:56:25.704Z,99142.63
2023-03-08T03:58:52.777Z,99147.41
2023-03-08T04:01:22.347Z,99152.81
2023-03-08T04:03:49.427Z,99149.97
2023-03-08T04:06:22.268Z,99161.13
2023-03-08T04:08:51.703Z,99152.56
2023-03-08T04:11:21.075Z,99160.00
2023-03-08T04:13:48.019Z,99162.38
2023-03-08T04:16:14.690Z,99157.50
2023-03-08T04:18:41.325Z,99160.34
2023-03-08T04:21:08.444Z,99155.31
2023-03-08T04:23:35.706Z,99160.53
2023-03-08T04:26:03.267Z,99153.47
2023-03-08T04:28:30.134Z,99163.63
2023-03-08T04:30:57.168Z,99159.91
2023-03-08T04:33:24.195Z,99166.63
2023-03-08T04:35:51.058Z,99175.13
2023-03-08T04:38:18.561Z,99169.00
2023-03-08T04:41:11.877Z,99166.09
2023-03-08T04:43:40.188Z,99162.56
2023-03-08T04:46:07.854Z,99177.78
2023-03-08T04:48:34.426Z,99173.44
2023-03-08T04:51:03.521Z,99174.03
2023-03-08T04:53:30.812Z,99181.59
2023-03-08T04:55:59.846Z,99183.16
2023-03-08T04:58:28.044Z,99175.66
2023-03-08T05:00:54.599Z,99180.16
2023-03-08T05:03:21.329Z,99184.22
2023-03-08T05:05:55.914Z,99188.75
2023-03-08T05:08:23.666Z,99191.31
2023-03-08T05:10:55.203Z,99199.63
2023-03-08T05:13:21.814Z,99197.88
2023-03-08T05:15:48.388Z,99196.88
2023-03-08T05:18:15.027Z,99210.16
2023-03-08T05:20:41.573Z,99210.16
2023-03-08T05:23:08.106Z,99211.94
2023-03-08T05:25:34.746Z,99218.31
2023-03-08T05:28:01.279Z,99214.78
2023-03-08T05:30:28.017Z,99231.56
2023-03-08T05:32:54.638Z,99224.69
2023-03-08T05:35:21.179Z,99226.06
2023-03-08T05:37:47.709Z,99224.31
2023-03-08T05:40:14.396Z,99234.41
2023-03-08T05:42:40.982Z,99236.59
2023-03-08T05:45:08.254Z,99235.84
2023-03-08T05:47:34.877Z,99244.31
2023-03-08T05:50:01.484Z,99242.19
2023-03-08T05:52:29.889Z,99244.41
2023-03-08T05:54:56.420Z,99249.38
2023-03-08T05:57:22.956Z,99243.06
2023-03-08T05:59:49.511Z,99252.81
2023-03-08T06:02:16.257Z,99259.19
2023-03-08T06:04:42.922Z,99249.09
2023-03-08T06:07:09.476Z,99250.69
2023-03-08T06:09:36.038Z,99262.81
2023-03-08T06:12:02.547Z,99263.25
2023-03-08T06:14:29.084Z,99264.69
2023-03-08T06:16:55.633Z,99259.78
2023-03-08T06:19:22.191Z,99268.72
2023-03-08T06:21:48.752Z,99264.00
2023-03-08T06:24:15.324Z,99267.63
2023-03-08T06:26:41.892Z,99273.03
2023-03-08T06:29:08.494Z,99273.47
2023-03-08T06:31:35.028Z,99280.63
2023-03-08T06:34:01.563Z,99278.16
2023-03-08T06:36:28.173Z,99285.50
2023-03-08T06:38:54.767Z,99290.44
2023-03-08T06:41:21.816Z,99291.06
2023-03-08T06:43:49.134Z,99295.28
2023-03-08T06:46:18.359Z,99305.84
2023-03-08T06:48:46.136Z,99301.53
2023-03-08T06:51:12.804Z,99301.63
2023-03-08T06:53:39.709Z,99307.63
2023-03-08T06:56:07.864Z,99311.22
2023-03-08T06:58:36.635Z,99320.38
2023-03-08T07:01:06.735Z,99315.91
2023-03-08T07:03:34.045Z,99322.09
2023-03-08T07:06:08.490Z,99317.81
2023-03-08T07:08:36.499Z,99320.25
2023-03-08T07:11:03.157Z,99319.50
2023-03-08T07:13:29.863Z,99321.16
2023-03-08T07:15:57.088Z,99328.13
2023-03-08T07:18:24.399Z,99333.34
2023-03-08T07:20:56.645Z,99322.66
2023-03-08T07:23:23.593Z,99323.81
2023-03-08T07:25:50.556Z,99326.34
2023-03-08T07:28:17.158Z,99332.56
2023-03-08T07:30:48.803Z,99332.06
2023-03-08T07:33:15.827Z,99332.94
2023-03-08T07:35:42.405Z,99330.84
2023-03-08T07:38:09.137Z,99330.06
2023-03-08T07:40:35.718Z,99336.25
2023-03-08T07:43:05.142Z,99342.03
2023-03-08T07:45:32.072Z,99336.09
2023-03-08T07:47:59.207Z,99339.88
2023-03-08T07:50:25.945Z,99340.34
2023-03-08T07:52:52.499Z,99342.78
2023-03-08T07:55:19.187Z,99340.63
2023-03-08T07:57:45.790Z,99343.81
2023-03-08T08:00:12.724Z,99352.19
2023-03-08T08:02:39.692Z,99345.72
2023-03-08T08:05:06.640Z,99347.69
2023-03-08T08:07:33.349Z,99339.91
2023-03-08T08:09:59.935Z,99341.50
2023-03-08T08:12:26.473Z,99334.38
2023-03-08T08:14:53.454Z,99342.13
2023-03-08T08:17:21.221Z,99329.84
2023-03-08T08:19:48.487Z,99334.47
2023-03-08T08:22:15.478Z,99332.09
2023-03-08T08:24:42.183Z,99339.66
2023-03-08T08:27:08.716Z,99334.66
2023-03-08T08:29:36.556Z,99333.50
2023-03-08T08:32:04.286Z,99328.53
2023-03-08T08:34:30.893Z,99338.28
2023-03-08T08:36:57.390Z,99329.34
2023-03-08T08:39:24.032Z,99335.88
2023-03-08T08:41:50.739Z,99336.47
2023-03-08T08:44:17.346Z,99333.50
2023-03-08T08:46:43.897Z,99341.59
2023-03-08T08:49:10.917Z,99338.13
2023-03-08T08:51:37.557Z,99342.84
2023-03-08T08:54:04.355Z,99343.03
2023-03-08T08:56:30.976Z,99340.50
2023-03-08T08:59:00.435Z,99346.94
2023-03-08T09:01:32.676Z,99341.59
2023-03-08T09:03:59.874Z,99334.50
2023-03-08T09:06:27.906Z,99345.00
2023-03-08T09:08:57.258Z,99352.56
2023-03-08T09:11:25.196Z,99344.41
2023-03-08T09:13:52.461Z,99349.19
2023-03-08T09:16:22.112Z,99349.38
2023-03-08T09:18:49.200Z,99343.19
2023-03-08T09:21:16.479Z,99350.94
2023-03-08T09:23:43.315Z,99352.09
2023-03-08T09:26:10.422Z,99354.09
2023-03-08T09:28:37.307Z,99358.25
2023-03-08T09:31:14.903Z,99360.09
2023-03-08T09:33:47.310Z,99355.34
2023-03-08T09:36:14.304Z,99358.94
2023-03-08T09:38:41.005Z,99347.81
2023-03-08T09:41:21.583Z,99355.16
2023-03-08T09:44:25.079Z,99347.41
2023-03-08T09:46:58.541Z,99345.59
2023-03-08T09:49:31.297Z,99346.72
2023-03-08T09:52:35.325Z,99333.72
2023-03-08T09:55:04.453Z,99329.28
2023-03-08T09:57:37.860Z,99317.50
2023-03-08T10:00:09.423Z,99317.47
2023-03-08T10:02:53.428Z,99317.00
2023-03-08T10:05:49.795Z,99309.28
2023-03-08T10:08:16.254Z,99312.41
2023-03-08T10:11:00.459Z,99297.69
2023-03-08T10:13:36.384Z,99299.91
2023-03-08T10:16:05.536Z,99296.66
2023-03-08T10:18:47.269Z,99296.34
2023-03-08T10:21:17.745Z,99286.94
2023-03-08T10:23:59.020Z,99285.75
2023-03-08T10:26:27.016Z,99276.72
2023-03-08T10:28:53.701Z,99279.69
2023-03-08T10:31:22.663Z,99279.03
2023-03-08T10:33:53.651Z,99275.72
2023-03-08T10:36:25.328Z,99278.50
2023-03-08T10:39:04.559Z,99273.06
2023-03-08T10:41:36.695Z,99280.75
2023-03-08T10:44:04.057Z,99289.72
2023-03-08T10:46:32.971Z,99284.88
2023-03-08T10:49:14.827Z,99288.56
2023-03-08T10:51:56.144Z,99277.59
2023-03-08T10:54:22.789Z,99283.41
2023-03-08T10:59:54.199Z,99280.28
2023-03-08T11:02:22.744Z,99273.28
2023-03-08T11:04:57.672Z,99277.75
2023-03-08T11:07:30.605Z,99272.19
2023-03-08T11:10:18.418Z,99272.50
2023-03-08T11:12:45.873Z,99272.81
2023-03-08T11:15:18.334Z,99274.34
2023-03-08T11:17:59.528Z,99260.81
2023-03-08T11:20:34.325Z,99260.38
2023-03-08T11:23:44.757Z,99267.94
2023-03-08T11:26:35.392Z,99262.28
2023-03-08T11:29:10.424Z,99259.38
2023-03-08T11:31:50.675Z,99254.44
2023-03-08T11:34:31.250Z,99253.09
2023-03-08T11:37:10.960Z,99249.16
2023-03-08T11:39:54.947Z,99247.19
2023-03-08T11:43:06.533Z,99243.53
2023-03-08T11:45:53.840Z,99242.81
2023-03-08T11:48:23.497Z,99255.63
2023-03-08T11:50:58.652Z,99256.59
2023-03-08T11:53:45.959Z,99254.34
2023-03-08T11:56:27.286Z,99254.66
2023-03-08T11:59:02.216Z,99250.13
2023-03-08T12:02:03.087Z,99240.16
2023-03-08T12:04:43.966Z,99232.59
2023-03-08T12:07:21.266Z,99240.16
2023-03-08T12:09:55.530Z,99232.81
2023-03-08T12:12:27.596Z,99226.13
2023-03-08T12:15:00.080Z,99220.84
2023-03-08T12:17:40.065Z,99214.19
2023-03-08T12:20:20.177Z,99207.66
2023-03-08T12:23:05.430Z,99202.78
2023-03-08T12:25:39.916Z,99191.13
2023-03-08T12:28:38.901Z,99187.84
2023-03-08T12:31:29.521Z,99184.41
2023-03-08T12:33:58.894Z,99176.28
2023-03-08T12:36:43.269Z,99175.53
2023-03-08T12:39:26.325Z,99170.50
2023-03-08T12:42:02.519Z,99167.75
2023-03-08T12:44:30.699Z,99151.41
2023-03-08T12:47:18.386Z,99163.31
2023-03-08T12:49:50.059Z,99159.22
2023-03-08T12:52:19.596Z,99159.69
2023-03-08T12:55:19.308Z,99158.66
2023-03-08T12:57:53.178Z,99158.06
2023-03-08T13:00:19.631Z,99154.69
2023-03-08T13:02:46.472Z,99151.03
2023-03-08T13:05:19.222Z,99148.56
2023-03-08T13:08:16.385Z,99144.97
2023-03-08T13:10:49.136Z,99150.75
2023-03-08T13:13:43.522Z,99141.94
2023-03-08T13:16:16.162Z,99139.34
2023-03-08T13:18:45.405Z,99152.78
2023-03-08T13:21:35.246Z,99144.91
2023-03-08T13:24:01.909Z,99137.41
2023-03-08T13:26:49.839Z,99139.38
2023-03-08T13:29:20.493Z,99140.97
2023-03-08T13:31:48.660Z,99142.31
2023-03-08T13:34:31.175Z,99134.97
2023-03-08T13:36:58.406Z,99135.47
2023-03-08T13:39:27.801Z,99138.13
2023-03-08T13:42:06.254Z,99138.09
2023-03-08T13:44:33.521Z,99135.25
2023-03-08T13:47:20.091Z,99136.66
2023-03-08T13:49:47.308Z,99129.88
2023-03-08T13:52:18.037Z,99122.69
2023-03-08T13:54:53.046Z,99128.44
2023-03-08T13:57:30.378Z,99133.41
2023-03-08T14:00:00.181Z,99131.22
2023-03-08T14:02:32.364Z,99126.47
2023-03-08T14:04:59.650Z,99122.44
2023-03-08T14:07:28.987Z,99134.97
2023-03-08T14:09:56.852Z,99130.56
2023-03-08T14:12:27.784Z,99122.97
2023-03-08T14:15:01.145Z,99121.06
2023-03-08T14:17:32.527Z,99119.16
2023-03-08T14:20:14.058Z,99124.69
2023-03-08T14:22:40.729Z,99123.63
2023-03-08T14:25:22.557Z,99123.91
2023-03-08T14:27:50.759Z,99121.03
2023-03-08T14:30:21.750Z,99120.03
2023-03-08T14:33:02.606Z,99117.88
2023-03-08T14:35:38.547Z,99117.88
2023-03-08T14:38:33.650Z,99118.66
2023-03-08T14:41:06.351Z,99113.31
2023-03-08T14:43:33.137Z,99117.00
2023-03-08T14:46:03.324Z,99103.34
2023-03-08T14:48:31.137Z,99105.56
2023-03-08T14:51:03.493Z,99108.28
2023-03-08T14:53:41.372Z,99108.31
2023-03-08T14:56:16.630Z,99110.81
2023-03-08T14:58:46.819Z,99109.03
2023-03-08T15:01:23.870Z,99101.41
2023-03-08T15:03:50.717Z,99101.69
2023-03-08T15:06:23.776Z,99097.44
2023-03-08T15:08:50.718Z,99097.56
2023-03-08T15:11:17.533Z,99095.25
2023-03-08T15:13:46.032Z,99089.72
2023-03-08T15:16:14.527Z,99089.22
2023-03-08T15:18:42.639Z,99087.28
2023-03-08T15:21:20.258Z,99086.94
2023-03-08T15:23:47.818Z,99081.00
2023-03-08T15:26:20.885Z,99075.06
2023-03-08T15:28:47.522Z,99081.59
2023-03-08T15:31:14.378Z,99071.13
2023-03-08T15:33:41.082Z,99072.53
2023-03-08T15:36:12.998Z,99075.34
2023-03-08T15:38:39.533Z,99072.38
2023-03-08T15:41:06.194Z,99070.22
2023-03-08T15:43:33.306Z,99062.69
2023-03-08T15:45:59.989Z,99067.06
2023-03-08T15:48:26.519Z,99065.50
2023-03-08T15:50:53.127Z,99062.34
2023-03-08T15:53:33.240Z,99068.09
2023-03-08T15:56:01.329Z,99059.38
2023-03-08T15:58:27.914Z,99053.41
2023-03-08T16:00:54.525Z,99058.59
2023-03-08T16:03:26.025Z,99059.97
2023-03-08T16:05:53.137Z,99061.38
2023-03-08T16:08:20.442Z,99058.78
2023-03-08T16:10:46.987Z,99058.19
2023-03-08T16:13:13.766Z,99056.81
2023-03-08T16:15:41.521Z,99049.09
2023-03-08T16:18:08.212Z,99042.16
2023-03-08T16:20:34.818Z,99035.03
2023-03-08T16:23:01.557Z,99032.63
2023-03-08T16:25:28.212Z,99029.84
2023-03-08T16:27:54.981Z,99031.81
2023-03-08T16:30:21.972Z,99035.41
2023-03-08T16:32:53.386Z,99029.84
2023-03-08T16:35:21.103Z,99035.78
2023-03-08T16:37:47.773Z,99035.75
2023-03-08T16:40:15.503Z,99046.66
2023-03-08T16:42:42.477Z,99040.28
2023-03-08T16:45:09.737Z,99044.81
2023-03-08T16:47:36.541Z,99041.63
2023-03-08T16:50:04.078Z,99041.41
2023-03-08T16:52:30.788Z,99046.47
2023-03-08T16:54:57.529Z,99043.47
2023-03-08T16:57:24.185Z,99034.53
2023-03-08T16:59:50.723Z,99043.44
2023-03-08T17:02:20.590Z,99039.66
2023-03-08T17:04:48.715Z,99035.72
2023-03-08T17:07:16.516Z,99028.31
2023-03-08T17:09:43.101Z,99030.66
2023-03-08T17:12:10.211Z,99024.47
2023-03-08T17:14:37.259Z,99018.56
2023-03-08T17:17:04.968Z,99015.38
2023-03-08T17:19:31.989Z,99019.69
2023-03-08T17:21:58.789Z,99011.94
2023-03-08T17:24:28.100Z,99018.63
2023-03-08T17:26:55.125Z,99021.56
2023-03-08T17:29:22.675Z,99012.03
2023-03-08T17:31:49.734Z,99008.22
2023-03-08T17:34:17.422Z,99010.16
2023-03-08T17:36:46.660Z,99003.81
2023-03-08T17:39:14.257Z,99008.72
2023-03-08T17:41:42.954Z,99011.25
2023-03-08T17:44:09.637Z,99012.22
2023-03-08T17:46:36.287Z,99013.19
2023-03-08T17:49:02.966Z,99009.03
2023-03-08T17:51:31.512Z,99006.66
2023-03-08T17:53:58.775Z,99009.41
2023-03-08T17:56:29.422Z,99013.31
2023-03-08T17:58:58.617Z,99006.41
2023-03-08T18:01:28.650Z,98999.88
2023-03-08T18:03:57.632Z,99006.78
2023-03-08T18:06:42.431Z,99001.41
2023-03-08T18:09:15.229Z,99009.50
2023-03-08T18:11:43.576Z,99009.50
2023-03-08T18:14:12.847Z,99006.13
2023-03-08T18:16:40.781Z,99003.56
2023-03-08T18:19:07.546Z,98997.00
2023-03-08T18:21:36.287Z,98996.03
2023-03-08T18:24:03.033Z,98987.78
2023-03-08T18:26:29.627Z,98988.97
2023-03-08T18:28:59.294Z,98994.09
2023-03-08T18:31:26.815Z,98982.41
2023-03-08T18:33:54.931Z,98989.13
2023-03-08T18:36:22.996Z,98979.84
2023-03-08T18:38:49.689Z,98971.72
2023-03-08T18:41:27.260Z,98969.13
2023-03-08T18:43:55.129Z,98976.41
2023-03-08T18:46:31.968Z,98966.53
2023-03-08T18:49:04.309Z,98971.47
2023-03-08T18:51:32.371Z,98964.75
2023-03-08T18:53:59.793Z,98966.34
2023-03-08T18:56:27.432Z,98960.41
2023-03-08T18:58:55.638Z,98955.44
2023-03-08T19:01:22.463Z,98947.13
2023-03-08T19:03:49.002Z,98950.88
2023-03-08T19:06:16.933Z,98953.03
2023-03-08T19:08:43.572Z,98949.66
2023-03-08T19:11:18.651Z,98953.84
2023-03-08T19:13:45.779Z,98949.28
2023-03-08T19:16:26.344Z,98946.91
2023-03-08T19:18:55.820Z,98935.06
2023-03-08T19:21:25.457Z,98934.25
2023-03-08T19:23:55.781Z,98943.72
2023-03-08T19:26:37.118Z,98936.63
2023-03-08T19:29:12.910Z,98932.69
2023-03-08T19:31:51.852Z,98929.13
2023-03-08T19:34:20.688Z,98926.56
2023-03-08T19:36:48.747Z,98931.31
2023-03-08T19:39:21.567Z,98928.94
2023-03-08T19:41:49.987Z,98926.56
2023-03-08T19:44:17.058Z,98932.50
2023-03-08T19:46:44.021Z,98924.78
2023-03-08T19:49:16.958Z,98926.75
2023-03-08T19:51:47.830Z,98923.19
2023-03-08T19:54:14.847Z,98918.06
2023-03-08T19:56:41.610Z,98916.91
2023-03-08T19:59:08.580Z,98921.59
2023-03-08T20:01:35.641Z,98916.06
2023-03-08T20:04:02.251Z,98918.44
2023-03-08T20:06:31.981Z,98918.00
2023-03-08T20:08:59.811Z,98920.03
2023-03-08T20:11:26.675Z,98920.03
2023-03-08T20:13:53.226Z,98922.38
2023-03-08T20:16:20.843Z,98919.81
2023-03-08T20:18:49.331Z,98914.66
2023-03-08T20:21:17.781Z,98918.00
2023-03-08T20:23:45.851Z,98914.66
2023-03-08T20:26:13.392Z,98918.19
2023-03-08T20:28:39.973Z,98915.63
2023-03-08T20:31:11.461Z,98923.13
2023-03-08T20:33:38.193Z,98924.75
2023-03-08T20:36:08.081Z,98929.06
2023-03-08T20:38:41.490Z,98923.13
2023-03-08T20:41:18.196Z,98918.00
2023-03-08T20:43:47.082Z,98917.63
2023-03-08T20:46:16.854Z,98921.59
2023-03-08T20:48:45.624Z,98925.59
2023-03-08T20:51:14.847Z,98923.59
2023-03-08T20:53:42.034Z,98931.91
2023-03-08T20:56:16.320Z,98925.22
2023-03-08T20:58:45.157Z,98932.34
2023-03-08T21:01:14.577Z,98920.50
2023-03-08T21:03:41.814Z,98912.00
2023-03-08T21:06:27.047Z,98902.72
2023-03-08T21:08:54.350Z,98897.16
2023-03-08T21:11:22.065Z,98887.88
2023-03-08T21:13:49.812Z,98882.13
2023-03-08T21:16:18.652Z,98888.25
2023-03-08T21:18:49.589Z,98884.25
2023-03-08T21:21:34.169Z,98890.19
2023-03-08T21:24:05.830Z,98880.97
2023-03-08T21:26:32.890Z,98884.69
2023-03-08T21:29:02.318Z,98893.19
2023-03-08T21:31:31.849Z,98883.91
2023-03-08T21:34:01.544Z,98878.97
2023-03-08T21:36:28.946Z,98875.41
2023-03-08T21:38:57.674Z,98881.34
2023-03-08T21:41:29.990Z,98888.06
2023-03-08T21:43:58.415Z,98877.41
2023-03-08T21:46:25.658Z,98875.03
2023-03-08T21:48:52.727Z,98871.50
2023-03-08T21:51:19.228Z,98872.28
2023-03-08T21:53:45.833Z,98866.94
2023-03-08T21:56:14.718Z,98865.19
2023-03-08T21:58:41.647Z,98862.63
2023-03-08T22:01:24.637Z,98864.22
2023-03-08T22:03:52.156Z,98863.84
2023-03-08T22:06:19.123Z,98873.31
2023-03-08T22:08:45.884Z,98877.28
2023-03-08T22:11:12.945Z,98881.44
2023-03-08T22:13:39.684Z,98871.78
2023-03-08T22:16:08.126Z,98880.09
2023-03-08T22:18:34.782Z,98877.28
2023-03-08T22:21:01.458Z,98873.72
2023-03-08T22:23:28.190Z,98864.81
2023-03-08T22:25:55.174Z,98873.91
2023-03-08T22:28:21.873Z,98877.22
2023-03-08T22:30:48.681Z,98877.81
2023-03-08T22:33:16.922Z,98872.09
2023-03-08T22:35:48.290Z,98870.31
2023-03-08T22:38:18.237Z,98869.34
2023-03-08T22:40:45.467Z,98857.28
2023-03-08T22:43:12.157Z,98870.94
2023-03-08T22:45:38.767Z,98868.78
2023-03-08T22:48:06.914Z,98871.16
2023-03-08T22:50:33.508Z,98869.19
2023-03-08T22:53:00.110Z,98872.75
2023-03-08T22:55:26.712Z,98875.13
2023-03-08T22:57:53.245Z,98874.75
2023-03-08T23:00:20.627Z,98868.63
2023-03-08T23:02:48.553Z,98879.09
2023-03-08T23:05:17.461Z,98878.66
2023-03-08T23:07:44.087Z,98875.13
2023-03-08T23:10:11.750Z,98872.19
2023-03-08T23:12:38.404Z,98865.44
2023-03-08T23:15:05.826Z,98870.19
2023-03-08T23:17:32.479Z,98862.50
2023-03-08T23:19:59.236Z,98865.63
2023-03-08T23:22:26.110Z,98864.03
2023-03-08T23:24:52.665Z,98860.28
2023-03-08T23:27:19.833Z,98858.31
2023-03-08T23:29:46.400Z,98864.69
2023-03-08T23:32:13.081Z,98865.28
2023-03-08T23:34:39.692Z,98855.38
2023-03-08T23:37:06.270Z,98858.53
2023-03-08T23:39:34.063Z,98863.69
2023-03-08T23:42:01.146Z,98866.06
2023-03-08T23:44:27.715Z,98857.75
2023-03-08T23:46:54.254Z,98855.38
2023-03-08T23:49:21.060Z,98862.09
2023-03-08T23:51:47.665Z,98855.75
2023-03-08T23:54:14.450Z,98854.03
2023-03-08T23:56:41.161Z,98841.38
2023-03-08T23:59:12.289Z,98830.91
